sensor_id;sensor_type;location;lat;lon;timestamp;P1;durP1;ratioP1;P2;durP2;ratioP2
68509;SDS011;55512;50.102;19.958;2022-11-30T00:01:11;40.10;;;16.90;;
68509;SDS011;55512;50.102;19.958;2022-11-30T00:03:37;39.40;;;15.30;;
68509;SDS011;55512;50.102;19.958;2022-11-30T00:06:05;40.50;;;16.90;;
68509;SDS011;55512;50.102;19.958;2022-11-30T00:08:31;45.20;;;17.10;;
68509;SDS011;55512;50.102;19.958;2022-11-30T00:10:57;43.00;;;18.10;;
68509;SDS011;55512;50.102;19.958;2022-11-30T00:13:23;38.70;;;17.30;;
68509;SDS011;55512;50.102;19.958;2022-11-30T00:15:48;43.80;;;18.20;;
68509;SDS011;55512;50.102;19.958;2022-11-30T00:18:14;37.20;;;16.10;;
68509;SDS011;55512;50.102;19.958;2022-11-30T00:20:42;45.60;;;16.10;;
68509;SDS011;55512;50.102;19.958;2022-11-30T00:23:08;45.90;;;18.50;;
68509;SDS011;55512;50.102;19.958;2022-11-30T00:25:35;40.60;;;16.60;;
68509;SDS011;55512;50.102;19.958;2022-11-30T00:28:01;28.20;;;12.70;;
68509;SDS011;55512;50.102;19.958;2022-11-30T00:30:26;28.60;;;12.00;;
68509;SDS011;55512;50.102;19.958;2022-11-30T00:32:56;36.70;;;16.30;;
68509;SDS011;55512;50.102;19.958;2022-11-30T00:35:22;36.60;;;16.00;;
68509;SDS011;55512;50.102;19.958;2022-11-30T00:37:48;45.30;;;16.90;;
68509;SDS011;55512;50.102;19.958;2022-11-30T00:40:14;37.30;;;14.90;;
68509;SDS011;55512;50.102;19.958;2022-11-30T00:42:40;37.10;;;15.50;;
68509;SDS011;55512;50.102;19.958;2022-11-30T00:45:06;40.20;;;14.80;;
68509;SDS011;55512;50.102;19.958;2022-11-30T00:47:32;45.40;;;17.50;;
68509;SDS011;55512;50.102;19.958;2022-11-30T00:49:57;44.30;;;17.70;;
68509;SDS011;55512;50.102;19.958;2022-11-30T00:52:23;40.80;;;17.00;;
68509;SDS011;55512;50.102;19.958;2022-11-30T00:54:48;38.80;;;16.30;;
68509;SDS011;55512;50.102;19.958;2022-11-30T00:57:14;38.20;;;15.70;;
68509;SDS011;55512;50.102;19.958;2022-11-30T00:59:39;40.50;;;15.80;;
68509;SDS011;55512;50.102;19.958;2022-11-30T01:02:05;41.00;;;16.10;;
68509;SDS011;55512;50.102;19.958;2022-11-30T01:04:30;42.20;;;16.30;;
68509;SDS011;55512;50.102;19.958;2022-11-30T01:06:56;39.20;;;16.10;;
68509;SDS011;55512;50.102;19.958;2022-11-30T01:09:21;48.00;;;17.70;;
68509;SDS011;55512;50.102;19.958;2022-11-30T01:11:47;42.20;;;16.50;;
68509;SDS011;55512;50.102;19.958;2022-11-30T01:14:12;45.40;;;17.80;;
68509;SDS011;55512;50.102;19.958;2022-11-30T01:16:37;37.90;;;16.10;;
68509;SDS011;55512;50.102;19.958;2022-11-30T01:19:03;39.40;;;14.50;;
68509;SDS011;55512;50.102;19.958;2022-11-30T01:21:29;43.20;;;16.30;;
68509;SDS011;55512;50.102;19.958;2022-11-30T01:23:55;32.10;;;13.20;;
68509;SDS011;55512;50.102;19.958;2022-11-30T01:26:22;39.30;;;15.00;;
68509;SDS011;55512;50.102;19.958;2022-11-30T01:28:52;42.10;;;16.30;;
68509;SDS011;55512;50.102;19.958;2022-11-30T01:31:18;38.10;;;14.60;;
68509;SDS011;55512;50.102;19.958;2022-11-30T01:33:54;44.10;;;15.70;;
68509;SDS011;55512;50.102;19.958;2022-11-30T01:36:22;46.80;;;17.50;;
68509;SDS011;55512;50.102;19.958;2022-11-30T01:38:53;40.30;;;16.20;;
68509;SDS011;55512;50.102;19.958;2022-11-30T01:41:31;41.40;;;15.40;;
68509;SDS011;55512;50.102;19.958;2022-11-30T01:46:35;39.20;;;14.70;;
68509;SDS011;55512;50.102;19.958;2022-11-30T01:51:39;37.60;;;15.60;;
68509;SDS011;55512;50.102;19.958;2022-11-30T01:54:08;37.50;;;14.60;;
68509;SDS011;55512;50.102;19.958;2022-11-30T01:56:44;35.70;;;15.20;;
68509;SDS011;55512;50.102;19.958;2022-11-30T01:59:13;32.90;;;12.60;;
68509;SDS011;55512;50.102;19.958;2022-11-30T02:01:40;35.10;;;14.60;;
68509;SDS011;55512;50.102;19.958;2022-11-30T02:04:18;33.80;;;14.60;;
68509;SDS011;55512;50.102;19.958;2022-11-30T02:06:46;34.60;;;13.10;;
68509;SDS011;55512;50.102;19.958;2022-11-30T02:09:14;38.50;;;15.00;;
68509;SDS011;55512;50.102;19.958;2022-11-30T02:11:42;35.80;;;14.90;;
68509;SDS011;55512;50.102;19.958;2022-11-30T02:14:45;31.00;;;12.30;;
68509;SDS011;55512;50.102;19.958;2022-11-30T02:17:30;24.10;;;10.10;;
68509;SDS011;55512;50.102;19.958;2022-11-30T02:20:41;33.30;;;12.60;;
68509;SDS011;55512;50.102;19.958;2022-11-30T02:34:33;27.80;;;11.80;;
68509;SDS011;55512;50.102;19.958;2022-11-30T02:37:02;28.90;;;11.30;;
68509;SDS011;55512;50.102;19.958;2022-11-30T02:39:31;25.30;;;11.70;;
68509;SDS011;55512;50.102;19.958;2022-11-30T02:41:56;35.20;;;14.90;;
68509;SDS011;55512;50.102;19.958;2022-11-30T02:44:22;33.90;;;13.30;;
68509;SDS011;55512;50.102;19.958;2022-11-30T02:47:22;30.90;;;12.80;;
68509;SDS011;55512;50.102;19.958;2022-11-30T02:50:19;29.00;;;12.20;;
68509;SDS011;55512;50.102;19.958;2022-11-30T02:52:50;33.10;;;12.90;;
68509;SDS011;55512;50.102;19.958;2022-11-30T02:55:18;33.90;;;13.40;;
68509;SDS011;55512;50.102;19.958;2022-11-30T02:57:44;31.90;;;14.00;;
68509;SDS011;55512;50.102;19.958;2022-11-30T03:00:14;31.40;;;13.00;;
68509;SDS011;55512;50.102;19.958;2022-11-30T03:02:40;30.60;;;12.30;;
68509;SDS011;55512;50.102;19.958;2022-11-30T03:05:06;28.70;;;12.20;;
68509;SDS011;55512;50.102;19.958;2022-11-30T03:07:33;28.60;;;12.00;;
68509;SDS011;55512;50.102;19.958;2022-11-30T03:09:59;25.90;;;10.60;;
68509;SDS011;55512;50.102;19.958;2022-11-30T03:12:25;27.80;;;10.30;;
68509;SDS011;55512;50.102;19.958;2022-11-30T03:14:51;28.30;;;11.70;;
68509;SDS011;55512;50.102;19.958;2022-11-30T03:17:16;29.80;;;11.70;;
68509;SDS011;55512;50.102;19.958;2022-11-30T03:19:42;28.80;;;12.50;;
68509;SDS011;55512;50.102;19.958;2022-11-30T03:22:08;31.00;;;12.30;;
68509;SDS011;55512;50.102;19.958;2022-11-30T03:24:33;30.70;;;12.10;;
68509;SDS011;55512;50.102;19.958;2022-11-30T03:26:59;35.30;;;13.30;;
68509;SDS011;55512;50.102;19.958;2022-11-30T03:29:24;32.70;;;14.10;;
68509;SDS011;55512;50.102;19.958;2022-11-30T03:31:50;31.90;;;13.10;;
68509;SDS011;55512;50.102;19.958;2022-11-30T03:34:16;35.20;;;14.40;;
68509;SDS011;55512;50.102;19.958;2022-11-30T03:36:41;33.40;;;14.60;;
68509;SDS011;55512;50.102;19.958;2022-11-30T03:39:07;27.80;;;12.00;;
68509;SDS011;55512;50.102;19.958;2022-11-30T03:41:33;32.10;;;13.00;;
68509;SDS011;55512;50.102;19.958;2022-11-30T03:43:59;31.60;;;12.30;;
68509;SDS011;55512;50.102;19.958;2022-11-30T03:46:24;29.10;;;11.50;;
68509;SDS011;55512;50.102;19.958;2022-11-30T03:48:51;29.40;;;10.40;;
68509;SDS011;55512;50.102;19.958;2022-11-30T03:51:18;29.10;;;11.00;;
68509;SDS011;55512;50.102;19.958;2022-11-30T03:53:43;31.10;;;11.40;;
68509;SDS011;55512;50.102;19.958;2022-11-30T03:56:09;32.60;;;12.90;;
68509;SDS011;55512;50.102;19.958;2022-11-30T03:58:36;32.50;;;14.40;;
68509;SDS011;55512;50.102;19.958;2022-11-30T04:03:36;37.30;;;13.90;;
68509;SDS011;55512;50.102;19.958;2022-11-30T04:06:03;37.10;;;13.90;;
68509;SDS011;55512;50.102;19.958;2022-11-30T04:08:30;33.10;;;12.50;;
68509;SDS011;55512;50.102;19.958;2022-11-30T04:10:57;37.20;;;15.10;;
68509;SDS011;55512;50.102;19.958;2022-11-30T04:13:24;34.60;;;13.80;;
68509;SDS011;55512;50.102;19.958;2022-11-30T04:15:52;36.70;;;12.90;;
68509;SDS011;55512;50.102;19.958;2022-11-30T04:18:19;33.00;;;13.50;;
68509;SDS011;55512;50.102;19.958;2022-11-30T04:20:45;37.40;;;13.30;;
68509;SDS011;55512;50.102;19.958;2022-11-30T04:23:12;34.30;;;14.90;;
68509;SDS011;55512;50.102;19.958;2022-11-30T04:25:38;34.50;;;14.00;;
68509;SDS011;55512;50.102;19.958;2022-11-30T04:28:04;33.40;;;13.10;;
68509;SDS011;55512;50.102;19.958;2022-11-30T04:30:34;39.10;;;15.10;;
68509;SDS011;55512;50.102;19.958;2022-11-30T04:33:02;44.80;;;15.80;;
68509;SDS011;55512;50.102;19.958;2022-11-30T04:35:28;42.30;;;16.60;;
68509;SDS011;55512;50.102;19.958;2022-11-30T04:37:53;41.50;;;15.90;;
68509;SDS011;55512;50.102;19.958;2022-11-30T04:40:19;30.80;;;13.90;;
68509;SDS011;55512;50.102;19.958;2022-11-30T04:42:45;37.90;;;15.40;;
68509;SDS011;55512;50.102;19.958;2022-11-30T04:45:11;37.20;;;15.60;;
68509;SDS011;55512;50.102;19.958;2022-11-30T04:47:37;36.90;;;12.70;;
68509;SDS011;55512;50.102;19.958;2022-11-30T04:50:04;31.70;;;12.30;;
68509;SDS011;55512;50.102;19.958;2022-11-30T04:52:31;34.00;;;13.80;;
68509;SDS011;55512;50.102;19.958;2022-11-30T04:54:57;33.70;;;15.00;;
68509;SDS011;55512;50.102;19.958;2022-11-30T04:57:22;37.40;;;14.30;;
68509;SDS011;55512;50.102;19.958;2022-11-30T04:59:48;36.80;;;14.80;;
68509;SDS011;55512;50.102;19.958;2022-11-30T05:02:14;33.20;;;14.00;;
68509;SDS011;55512;50.102;19.958;2022-11-30T05:04:39;33.10;;;14.50;;
68509;SDS011;55512;50.102;19.958;2022-11-30T05:07:05;41.10;;;16.00;;
68509;SDS011;55512;50.102;19.958;2022-11-30T05:09:31;35.00;;;14.00;;
68509;SDS011;55512;50.102;19.958;2022-11-30T05:11:57;37.50;;;14.80;;
68509;SDS011;55512;50.102;19.958;2022-11-30T05:14:22;35.20;;;13.90;;
68509;SDS011;55512;50.102;19.958;2022-11-30T05:16:48;34.10;;;12.90;;
68509;SDS011;55512;50.102;19.958;2022-11-30T05:19:14;36.40;;;14.60;;
68509;SDS011;55512;50.102;19.958;2022-11-30T05:21:41;37.40;;;14.80;;
68509;SDS011;55512;50.102;19.958;2022-11-30T05:24:07;41.00;;;15.30;;
68509;SDS011;55512;50.102;19.958;2022-11-30T05:26:34;30.50;;;14.50;;
68509;SDS011;55512;50.102;19.958;2022-11-30T05:29:00;34.80;;;13.90;;
68509;SDS011;55512;50.102;19.958;2022-11-30T05:31:26;22.50;;;8.60;;
68509;SDS011;55512;50.102;19.958;2022-11-30T05:33:52;35.40;;;14.30;;
68509;SDS011;55512;50.102;19.958;2022-11-30T05:36:19;35.50;;;13.40;;
68509;SDS011;55512;50.102;19.958;2022-11-30T05:38:45;32.30;;;13.80;;
68509;SDS011;55512;50.102;19.958;2022-11-30T05:41:11;35.40;;;14.70;;
68509;SDS011;55512;50.102;19.958;2022-11-30T05:43:37;29.40;;;13.10;;
68509;SDS011;55512;50.102;19.958;2022-11-30T05:46:04;33.50;;;13.70;;
68509;SDS011;55512;50.102;19.958;2022-11-30T05:48:32;35.20;;;15.60;;
68509;SDS011;55512;50.102;19.958;2022-11-30T05:51:09;36.60;;;15.20;;
68509;SDS011;55512;50.102;19.958;2022-11-30T05:53:37;40.20;;;15.10;;
68509;SDS011;55512;50.102;19.958;2022-11-30T05:56:05;36.30;;;14.10;;
68509;SDS011;55512;50.102;19.958;2022-11-30T05:58:33;30.70;;;12.70;;
68509;SDS011;55512;50.102;19.958;2022-11-30T06:00:59;36.80;;;13.90;;
68509;SDS011;55512;50.102;19.958;2022-11-30T06:03:27;30.30;;;11.80;;
68509;SDS011;55512;50.102;19.958;2022-11-30T06:05:53;43.40;;;17.40;;
68509;SDS011;55512;50.102;19.958;2022-11-30T06:08:19;37.70;;;14.50;;
68509;SDS011;55512;50.102;19.958;2022-11-30T06:10:45;36.60;;;15.10;;
68509;SDS011;55512;50.102;19.958;2022-11-30T06:13:11;33.30;;;14.30;;
68509;SDS011;55512;50.102;19.958;2022-11-30T06:15:37;40.60;;;14.80;;
68509;SDS011;55512;50.102;19.958;2022-11-30T06:18:04;40.10;;;15.70;;
68509;SDS011;55512;50.102;19.958;2022-11-30T06:20:31;26.50;;;9.70;;
68509;SDS011;55512;50.102;19.958;2022-11-30T06:22:57;40.50;;;15.40;;
68509;SDS011;55512;50.102;19.958;2022-11-30T06:25:24;34.10;;;13.40;;
68509;SDS011;55512;50.102;19.958;2022-11-30T06:27:50;36.90;;;13.50;;
68509;SDS011;55512;50.102;19.958;2022-11-30T06:30:16;33.50;;;13.60;;
68509;SDS011;55512;50.102;19.958;2022-11-30T06:32:50;33.50;;;13.70;;
68509;SDS011;55512;50.102;19.958;2022-11-30T06:35:17;34.50;;;13.80;;
68509;SDS011;55512;50.102;19.958;2022-11-30T06:37:43;38.80;;;14.60;;
68509;SDS011;55512;50.102;19.958;2022-11-30T06:40:11;39.40;;;14.70;;
68509;SDS011;55512;50.102;19.958;2022-11-30T06:42:37;36.50;;;14.40;;
68509;SDS011;55512;50.102;19.958;2022-11-30T06:45:04;33.50;;;13.30;;
68509;SDS011;55512;50.102;19.958;2022-11-30T06:47:31;34.40;;;13.20;;
68509;SDS011;55512;50.102;19.958;2022-11-30T06:49:57;31.90;;;12.90;;
68509;SDS011;55512;50.102;19.958;2022-11-30T06:52:22;31.70;;;13.50;;
68509;SDS011;55512;50.102;19.958;2022-11-30T06:54:48;39.00;;;13.80;;
68509;SDS011;55512;50.102;19.958;2022-11-30T06:57:14;32.00;;;12.50;;
68509;SDS011;55512;50.102;19.958;2022-11-30T06:59:39;34.80;;;13.90;;
68509;SDS011;55512;50.102;19.958;2022-11-30T07:02:13;33.90;;;12.90;;
68509;SDS011;55512;50.102;19.958;2022-11-30T07:04:40;28.20;;;10.80;;
68509;SDS011;55512;50.102;19.958;2022-11-30T07:07:06;33.20;;;13.40;;
68509;SDS011;55512;50.102;19.958;2022-11-30T07:09:34;27.60;;;12.20;;
68509;SDS011;55512;50.102;19.958;2022-11-30T07:12:01;38.60;;;15.70;;
68509;SDS011;55512;50.102;19.958;2022-11-30T07:14:26;35.70;;;12.40;;
68509;SDS011;55512;50.102;19.958;2022-11-30T07:16:52;37.60;;;14.80;;
68509;SDS011;55512;50.102;19.958;2022-11-30T07:19:18;38.20;;;15.70;;
68509;SDS011;55512;50.102;19.958;2022-11-30T07:21:44;36.90;;;14.60;;
68509;SDS011;55512;50.102;19.958;2022-11-30T07:24:12;32.40;;;12.60;;
68509;SDS011;55512;50.102;19.958;2022-11-30T07:27:00;26.80;;;9.70;;
68509;SDS011;55512;50.102;19.958;2022-11-30T07:29:27;38.90;;;14.10;;
68509;SDS011;55512;50.102;19.958;2022-11-30T07:31:53;39.40;;;15.20;;
68509;SDS011;55512;50.102;19.958;2022-11-30T07:34:19;37.20;;;13.60;;
68509;SDS011;55512;50.102;19.958;2022-11-30T07:36:46;41.50;;;14.90;;
68509;SDS011;55512;50.102;19.958;2022-11-30T07:39:12;38.40;;;16.30;;
68509;SDS011;55512;50.102;19.958;2022-11-30T07:41:39;36.00;;;13.90;;
68509;SDS011;55512;50.102;19.958;2022-11-30T07:44:07;36.80;;;14.10;;
68509;SDS011;55512;50.102;19.958;2022-11-30T07:46:33;32.70;;;13.70;;
68509;SDS011;55512;50.102;19.958;2022-11-30T07:49:05;30.50;;;13.20;;
68509;SDS011;55512;50.102;19.958;2022-11-30T07:51:31;34.80;;;13.30;;
68509;SDS011;55512;50.102;19.958;2022-11-30T07:53:58;35.20;;;14.00;;
68509;SDS011;55512;50.102;19.958;2022-11-30T07:56:24;36.60;;;14.40;;
68509;SDS011;55512;50.102;19.958;2022-11-30T07:58:58;36.40;;;14.10;;
68509;SDS011;55512;50.102;19.958;2022-11-30T08:01:26;42.50;;;15.10;;
68509;SDS011;55512;50.102;19.958;2022-11-30T08:03:54;36.30;;;14.10;;
68509;SDS011;55512;50.102;19.958;2022-11-30T08:06:22;29.50;;;10.70;;
68509;SDS011;55512;50.102;19.958;2022-11-30T08:08:52;32.60;;;12.90;;
68509;SDS011;55512;50.102;19.958;2022-11-30T08:11:20;39.40;;;13.80;;
68509;SDS011;55512;50.102;19.958;2022-11-30T08:13:48;36.80;;;13.90;;
68509;SDS011;55512;50.102;19.958;2022-11-30T08:16:22;37.80;;;14.50;;
68509;SDS011;55512;50.102;19.958;2022-11-30T08:18:49;36.00;;;14.90;;
68509;SDS011;55512;50.102;19.958;2022-11-30T08:21:18;26.50;;;11.40;;
68509;SDS011;55512;50.102;19.958;2022-11-30T08:23:47;30.20;;;12.60;;
68509;SDS011;55512;50.102;19.958;2022-11-30T08:26:19;33.60;;;12.70;;
68509;SDS011;55512;50.102;19.958;2022-11-30T08:28:48;35.20;;;13.20;;
68509;SDS011;55512;50.102;19.958;2022-11-30T08:31:16;31.40;;;11.90;;
68509;SDS011;55512;50.102;19.958;2022-11-30T08:33:44;31.80;;;12.20;;
68509;SDS011;55512;50.102;19.958;2022-11-30T08:36:13;31.80;;;13.40;;
68509;SDS011;55512;50.102;19.958;2022-11-30T08:38:42;32.00;;;13.20;;
68509;SDS011;55512;50.102;19.958;2022-11-30T08:41:10;36.40;;;14.20;;
68509;SDS011;55512;50.102;19.958;2022-11-30T08:43:37;36.50;;;14.50;;
68509;SDS011;55512;50.102;19.958;2022-11-30T08:46:04;31.00;;;12.80;;
68509;SDS011;55512;50.102;19.958;2022-11-30T08:48:33;34.60;;;13.20;;
68509;SDS011;55512;50.102;19.958;2022-11-30T08:51:00;33.20;;;12.90;;
68509;SDS011;55512;50.102;19.958;2022-11-30T08:53:31;32.50;;;13.00;;
68509;SDS011;55512;50.102;19.958;2022-11-30T08:56:00;33.70;;;14.20;;
68509;SDS011;55512;50.102;19.958;2022-11-30T08:58:33;31.90;;;13.50;;
68509;SDS011;55512;50.102;19.958;2022-11-30T09:01:12;30.30;;;11.70;;
68509;SDS011;55512;50.102;19.958;2022-11-30T09:03:44;40.80;;;14.10;;
68509;SDS011;55512;50.102;19.958;2022-11-30T09:06:14;32.10;;;13.10;;
68509;SDS011;55512;50.102;19.958;2022-11-30T09:08:43;32.50;;;13.00;;
68509;SDS011;55512;50.102;19.958;2022-11-30T09:13:37;29.70;;;12.90;;
68509;SDS011;55512;50.102;19.958;2022-11-30T09:16:05;34.80;;;14.60;;
68509;SDS011;55512;50.102;19.958;2022-11-30T09:18:31;30.00;;;12.70;;
68509;SDS011;55512;50.102;19.958;2022-11-30T09:21:03;27.50;;;12.00;;
68509;SDS011;55512;50.102;19.958;2022-11-30T09:23:31;26.60;;;9.90;;
68509;SDS011;55512;50.102;19.958;2022-11-30T09:25:59;28.40;;;11.50;;
68509;SDS011;55512;50.102;19.958;2022-11-30T09:28:27;26.10;;;11.00;;
68509;SDS011;55512;50.102;19.958;2022-11-30T09:31:06;28.30;;;11.40;;
68509;SDS011;55512;50.102;19.958;2022-11-30T09:33:34;28.00;;;12.40;;
68509;SDS011;55512;50.102;19.958;2022-11-30T09:36:03;24.60;;;10.80;;
68509;SDS011;55512;50.102;19.958;2022-11-30T09:38:30;22.80;;;10.60;;
68509;SDS011;55512;50.102;19.958;2022-11-30T09:40:58;24.80;;;10.10;;
68509;SDS011;55512;50.102;19.958;2022-11-30T09:46:10;22.40;;;9.80;;
68509;SDS011;55512;50.102;19.958;2022-11-30T09:48:52;26.00;;;11.10;;
68509;SDS011;55512;50.102;19.958;2022-11-30T09:51:30;28.50;;;12.50;;
68509;SDS011;55512;50.102;19.958;2022-11-30T09:54:01;31.00;;;13.40;;
68509;SDS011;55512;50.102;19.958;2022-11-30T09:56:35;27.50;;;12.70;;
68509;SDS011;55512;50.102;19.958;2022-11-30T09:59:25;30.20;;;12.00;;
68509;SDS011;55512;50.102;19.958;2022-11-30T10:01:55;27.40;;;11.30;;
68509;SDS011;55512;50.102;19.958;2022-11-30T10:04:26;27.10;;;12.20;;
68509;SDS011;55512;50.102;19.958;2022-11-30T10:07:14;30.80;;;11.40;;
68509;SDS011;55512;50.102;19.958;2022-11-30T10:12:36;26.30;;;12.50;;
68509;SDS011;55512;50.102;19.958;2022-11-30T10:17:56;27.10;;;10.80;;
68509;SDS011;55512;50.102;19.958;2022-11-30T10:26:27;23.40;;;10.40;;
68509;SDS011;55512;50.102;19.958;2022-11-30T10:29:13;22.70;;;11.60;;
68509;SDS011;55512;50.102;19.958;2022-11-30T10:31:45;26.20;;;11.90;;
68509;SDS011;55512;50.102;19.958;2022-11-30T10:34:29;29.20;;;13.50;;
68509;SDS011;55512;50.102;19.958;2022-11-30T10:37:18;30.00;;;13.70;;
68509;SDS011;55512;50.102;19.958;2022-11-30T10:42:29;22.20;;;10.20;;
68509;SDS011;55512;50.102;19.958;2022-11-30T10:45:06;28.20;;;10.90;;
68509;SDS011;55512;50.102;19.958;2022-11-30T10:48:18;25.80;;;11.90;;
68509;SDS011;55512;50.102;19.958;2022-11-30T10:50:59;22.80;;;9.90;;
68509;SDS011;55512;50.102;19.958;2022-11-30T10:53:27;21.10;;;8.50;;
68509;SDS011;55512;50.102;19.958;2022-11-30T10:56:06;26.20;;;11.60;;
68509;SDS011;55512;50.102;19.958;2022-11-30T10:58:49;25.70;;;11.00;;
68509;SDS011;55512;50.102;19.958;2022-11-30T11:01:36;18.90;;;9.40;;
68509;SDS011;55512;50.102;19.958;2022-11-30T11:04:13;20.90;;;10.50;;
68509;SDS011;55512;50.102;19.958;2022-11-30T11:06:50;22.90;;;10.60;;
68509;SDS011;55512;50.102;19.958;2022-11-30T11:11:59;21.40;;;9.10;;
68509;SDS011;55512;50.102;19.958;2022-11-30T11:14:27;19.00;;;9.90;;
68509;SDS011;55512;50.102;19.958;2022-11-30T11:19:25;17.50;;;8.70;;
68509;SDS011;55512;50.102;19.958;2022-11-30T11:22:44;19.40;;;8.70;;
68509;SDS011;55512;50.102;19.958;2022-11-30T11:24:55;17.00;;;8.20;;
68509;SDS011;55512;50.102;19.958;2022-11-30T11:27:32;18.30;;;8.30;;
68509;SDS011;55512;50.102;19.958;2022-11-30T11:30:05;12.40;;;6.70;;
68509;SDS011;55512;50.102;19.958;2022-11-30T11:33:14;14.80;;;7.90;;
68509;SDS011;55512;50.102;19.958;2022-11-30T11:35:55;16.30;;;7.50;;
68509;SDS011;55512;50.102;19.958;2022-11-30T11:38:44;13.40;;;7.30;;
68509;SDS011;55512;50.102;19.958;2022-11-30T11:41:27;14.90;;;8.20;;
68509;SDS011;55512;50.102;19.958;2022-11-30T11:46:35;17.80;;;8.60;;
68509;SDS011;55512;50.102;19.958;2022-11-30T11:49:03;19.90;;;8.30;;
68509;SDS011;55512;50.102;19.958;2022-11-30T11:51:37;19.90;;;9.40;;
68509;SDS011;55512;50.102;19.958;2022-11-30T11:54:46;18.90;;;8.90;;
68509;SDS011;55512;50.102;19.958;2022-11-30T11:57:55;16.40;;;7.60;;
68509;SDS011;55512;50.102;19.958;2022-11-30T12:00:24;17.20;;;7.50;;
68509;SDS011;55512;50.102;19.958;2022-11-30T12:03:53;17.20;;;8.30;;
68509;SDS011;55512;50.102;19.958;2022-11-30T12:06:18;17.90;;;8.10;;
68509;SDS011;55512;50.102;19.958;2022-11-30T12:08:50;17.20;;;7.40;;
68509;SDS011;55512;50.102;19.958;2022-11-30T12:13:52;16.90;;;7.50;;
68509;SDS011;55512;50.102;19.958;2022-11-30T12:31:59;15.90;;;7.90;;
68509;SDS011;55512;50.102;19.958;2022-11-30T12:40:57;11.80;;;5.20;;
68509;SDS011;55512;50.102;19.958;2022-11-30T12:43:53;15.50;;;8.20;;
68509;SDS011;55512;50.102;19.958;2022-11-30T12:46:53;17.40;;;8.20;;
68509;SDS011;55512;50.102;19.958;2022-11-30T12:50:04;16.30;;;8.30;;
68509;SDS011;55512;50.102;19.958;2022-11-30T12:55:38;20.40;;;8.90;;
68509;SDS011;55512;50.102;19.958;2022-11-30T13:04:45;19.00;;;8.40;;
68509;SDS011;55512;50.102;19.958;2022-11-30T13:10:26;23.60;;;11.30;;
68509;SDS011;55512;50.102;19.958;2022-11-30T13:12:59;24.90;;;10.70;;
68509;SDS011;55512;50.102;19.958;2022-11-30T13:15:28;24.20;;;11.40;;
68509;SDS011;55512;50.102;19.958;2022-11-30T13:17:57;21.80;;;10.20;;
68509;SDS011;55512;50.102;19.958;2022-11-30T13:23:36;20.50;;;9.00;;
68509;SDS011;55512;50.102;19.958;2022-11-30T13:32:05;20.60;;;10.00;;
68509;SDS011;55512;50.102;19.958;2022-11-30T13:34:35;19.70;;;10.00;;
68509;SDS011;55512;50.102;19.958;2022-11-30T13:37:03;20.70;;;10.20;;
68509;SDS011;55512;50.102;19.958;2022-11-30T13:42:33;20.30;;;10.80;;
68509;SDS011;55512;50.102;19.958;2022-11-30T13:47:58;19.40;;;10.10;;
68509;SDS011;55512;50.102;19.958;2022-11-30T13:50:40;20.80;;;11.00;;
68509;SDS011;55512;50.102;19.958;2022-11-30T13:53:16;22.50;;;11.00;;
68509;SDS011;55512;50.102;19.958;2022-11-30T13:58:14;21.70;;;11.40;;
68509;SDS011;55512;50.102;19.958;2022-11-30T14:10:51;20.60;;;10.90;;
68509;SDS011;55512;50.102;19.958;2022-11-30T14:13:40;22.10;;;10.90;;
68509;SDS011;55512;50.102;19.958;2022-11-30T14:16:21;26.30;;;11.50;;
68509;SDS011;55512;50.102;19.958;2022-11-30T14:18:49;31.50;;;12.60;;
68509;SDS011;55512;50.102;19.958;2022-11-30T14:21:20;28.00;;;12.10;;
68509;SDS011;55512;50.102;19.958;2022-11-30T14:24:16;26.00;;;12.70;;
68509;SDS011;55512;50.102;19.958;2022-11-30T14:26:47;24.10;;;11.80;;
68509;SDS011;55512;50.102;19.958;2022-11-30T14:29:22;31.60;;;13.70;;
68509;SDS011;55512;50.102;19.958;2022-11-30T14:31:58;26.40;;;12.70;;
68509;SDS011;55512;50.102;19.958;2022-11-30T14:34:35;20.70;;;8.90;;
68509;SDS011;55512;50.102;19.958;2022-11-30T14:37:25;24.30;;;11.80;;
68509;SDS011;55512;50.102;19.958;2022-11-30T14:40:01;23.90;;;9.80;;
68509;SDS011;55512;50.102;19.958;2022-11-30T14:42:30;26.10;;;9.70;;
68509;SDS011;55512;50.102;19.958;2022-11-30T14:44:58;25.30;;;11.00;;
68509;SDS011;55512;50.102;19.958;2022-11-30T14:47:27;18.90;;;9.90;;
68509;SDS011;55512;50.102;19.958;2022-11-30T14:49:58;22.10;;;10.70;;
68509;SDS011;55512;50.102;19.958;2022-11-30T14:55:52;27.40;;;11.90;;
68509;SDS011;55512;50.102;19.958;2022-11-30T14:58:41;27.00;;;11.50;;
68509;SDS011;55512;50.102;19.958;2022-11-30T15:04:04;29.80;;;13.10;;
68509;SDS011;55512;50.102;19.958;2022-11-30T15:06:37;22.20;;;9.70;;
68509;SDS011;55512;50.102;19.958;2022-11-30T15:09:12;23.10;;;10.80;;
68509;SDS011;55512;50.102;19.958;2022-11-30T15:11:42;28.00;;;11.20;;
68509;SDS011;55512;50.102;19.958;2022-11-30T15:14:11;29.40;;;12.10;;
68509;SDS011;55512;50.102;19.958;2022-11-30T15:16:45;29.80;;;12.20;;
68509;SDS011;55512;50.102;19.958;2022-11-30T15:19:27;26.80;;;13.00;;
68509;SDS011;55512;50.102;19.958;2022-11-30T15:21:55;21.00;;;10.10;;
68509;SDS011;55512;50.102;19.958;2022-11-30T15:24:22;23.80;;;11.60;;
68509;SDS011;55512;50.102;19.958;2022-11-30T15:27:17;23.10;;;10.60;;
68509;SDS011;55512;50.102;19.958;2022-11-30T15:29:51;25.30;;;11.30;;
68509;SDS011;55512;50.102;19.958;2022-11-30T15:32:24;25.70;;;10.80;;
68509;SDS011;55512;50.102;19.958;2022-11-30T15:34:53;19.00;;;9.70;;
68509;SDS011;55512;50.102;19.958;2022-11-30T15:37:32;18.30;;;9.10;;
68509;SDS011;55512;50.102;19.958;2022-11-30T15:40:04;18.10;;;7.90;;
68509;SDS011;55512;50.102;19.958;2022-11-30T15:42:35;22.10;;;9.70;;
68509;SDS011;55512;50.102;19.958;2022-11-30T15:45:25;22.50;;;10.30;;
68509;SDS011;55512;50.102;19.958;2022-11-30T15:47:54;20.80;;;10.00;;
68509;SDS011;55512;50.102;19.958;2022-11-30T15:50:34;21.50;;;10.10;;
68509;SDS011;55512;50.102;19.958;2022-11-30T15:54:03;21.60;;;8.80;;
68509;SDS011;55512;50.102;19.958;2022-11-30T15:56:25;21.40;;;9.70;;
68509;SDS011;55512;50.102;19.958;2022-11-30T16:01:53;22.00;;;9.70;;
68509;SDS011;55512;50.102;19.958;2022-11-30T16:07:47;23.00;;;9.80;;
68509;SDS011;55512;50.102;19.958;2022-11-30T16:12:43;23.80;;;10.30;;
68509;SDS011;55512;50.102;19.958;2022-11-30T16:15:20;21.60;;;10.70;;
68509;SDS011;55512;50.102;19.958;2022-11-30T16:17:58;24.80;;;10.00;;
68509;SDS011;55512;50.102;19.958;2022-11-30T16:20:57;22.60;;;10.50;;
68509;SDS011;55512;50.102;19.958;2022-11-30T16:23:24;21.00;;;10.20;;
68509;SDS011;55512;50.102;19.958;2022-11-30T16:25:51;21.20;;;8.60;;
68509;SDS011;55512;50.102;19.958;2022-11-30T16:28:18;23.10;;;10.10;;
68509;SDS011;55512;50.102;19.958;2022-11-30T16:30:45;24.70;;;9.20;;
68509;SDS011;55512;50.102;19.958;2022-11-30T16:33:13;19.60;;;9.30;;
68509;SDS011;55512;50.102;19.958;2022-11-30T16:35:54;28.10;;;10.20;;
68509;SDS011;55512;50.102;19.958;2022-11-30T16:38:34;18.60;;;9.40;;
68509;SDS011;55512;50.102;19.958;2022-11-30T16:41:12;14.70;;;7.10;;